createdAt,value
2018-04-27T00:00:32.601Z,101100.80
2018-04-27T00:03:00.874Z,101103.65
2018-04-27T00:05:29.154Z,101100.34
2018-04-27T00:07:57.418Z,101096.45
2018-04-27T00:10:25.711Z,101095.89
2018-04-27T00:12:53.982Z,101100.61
2018-04-27T00:15:22.271Z,101102.84
2018-04-27T00:17:50.548Z,101101.84
2018-04-27T00:20:18.822Z,101098.27
2018-04-27T00:22:47.105Z,101104.23
2018-04-27T00:25:15.381Z,101105.20
2018-04-27T00:27:43.659Z,101093.14
2018-04-27T00:30:11.937Z,101090.04
2018-04-27T00:32:40.218Z,101085.00
2018-04-27T00:35:08.499Z,101082.42
2018-04-27T00:37:36.789Z,101081.84
2018-04-27T00:40:05.054Z,101071.77
2018-04-27T00:42:33.329Z,101067.69
2018-04-27T00:45:01.598Z,101059.03
2018-04-27T00:47:29.873Z,101059.30
2018-04-27T00:49:58.230Z,101056.16
2018-04-27T00:52:26.511Z,101051.75
2018-04-27T00:54:54.794Z,101054.19
2018-04-27T00:57:23.109Z,101064.66
2018-04-27T00:59:51.374Z,101058.42
2018-04-27T01:02:19.644Z,101060.11
2018-04-27T01:04:47.922Z,101054.80
2018-04-27T01:07:16.204Z,101051.80
2018-04-27T01:09:44.481Z,101055.95
2018-04-27T01:12:12.738Z,101051.47
2018-04-27T01:14:41.027Z,101053.34
2018-04-27T01:17:09.285Z,101046.47
2018-04-27T01:19:37.566Z,101048.08
2018-04-27T01:22:05.839Z,101046.89
2018-04-27T01:24:34.109Z,101043.42
2018-04-27T01:27:02.373Z,101053.77
2018-04-27T01:29:30.658Z,101047.97
2018-04-27T01:31:58.934Z,101046.92
2018-04-27T01:34:27.206Z,101043.55
2018-04-27T01:36:55.470Z,101040.64
2018-04-27T01:39:23.743Z,101042.80
2018-04-27T01:41:52.008Z,101038.83
2018-04-27T01:44:20.283Z,101037.31
2018-04-27T01:46:48.551Z,101041.59
2018-04-27T01:49:16.823Z,101034.66
2018-04-27T01:51:45.093Z,101036.87
2018-04-27T01:54:13.362Z,101024.69
2018-04-27T01:56:41.646Z,101022.49
2018-04-27T01:59:09.910Z,101025.52
2018-04-27T02:01:38.189Z,101026.70
2018-04-27T02:04:06.452Z,101023.84
2018-04-27T02:06:34.722Z,101022.52
2018-04-27T02:09:02.982Z,101018.19
2018-04-27T02:11:31.274Z,101015.70
2018-04-27T02:13:59.541Z,101015.55
2018-04-27T02:16:27.814Z,101012.00
2018-04-27T02:18:56.078Z,101004.35
2018-04-27T02:21:24.354Z,101014.14
2018-04-27T02:23:52.622Z,101013.24
2018-04-27T02:26:20.915Z,101004.21
2018-04-27T02:28:49.177Z,101007.32
2018-04-27T02:31:17.462Z,101004.69
2018-04-27T02:33:45.727Z,101005.55
2018-04-27T02:36:14.003Z,101003.90
2018-04-27T02:38:42.273Z,101003.22
2018-04-27T02:41:10.530Z,100997.91
2018-04-27T02:43:38.801Z,100997.53
2018-04-27T02:46:07.074Z,100997.78
2018-04-27T02:48:35.342Z,100985.31
2018-04-27T02:51:03.609Z,100985.38
2018-04-27T02:53:31.887Z,100989.94
2018-04-27T02:56:00.154Z,100986.03
2018-04-27T02:58:28.441Z,100982.98
2018-04-27T03:00:56.712Z,100978.59
2018-04-27T03:03:24.995Z,100975.26
2018-04-27T03:05:53.264Z,100974.20
2018-04-27T03:08:21.550Z,100968.34
2018-04-27T03:10:49.822Z,100960.88
2018-04-27T03:13:18.105Z,100965.33
2018-04-27T03:15:46.370Z,100958.86
2018-04-27T03:18:14.630Z,100955.84
2018-04-27T03:20:42.904Z,100946.62
2018-04-27T03:23:11.161Z,100942.26
2018-04-27T03:25:39.450Z,100942.90
2018-04-27T03:28:07.773Z,100941.18
2018-04-27T03:30:36.045Z,100930.44
2018-04-27T03:33:04.297Z,100925.74
2018-04-27T03:35:32.577Z,100935.31
2018-04-27T03:38:00.877Z,100924.47
2018-04-27T03:40:29.117Z,100925.66
2018-04-27T03:42:57.389Z,100917.98
2018-04-27T03:45:25.695Z,100927.31
2018-04-27T03:47:53.921Z,100928.66
2018-04-27T03:50:22.203Z,100925.63
2018-04-27T03:52:50.458Z,100926.48
2018-04-27T03:55:18.738Z,100924.82
2018-04-27T03:57:46.998Z,100917.55
2018-04-27T04:00:26.994Z,100924.77
2018-04-27T04:03:06.931Z,100919.91
2018-04-27T04:05:35.238Z,100919.63
2018-04-27T04:08:03.518Z,100922.66
2018-04-27T04:10:31.773Z,100917.18
2018-04-27T04:13:00.050Z,100911.42
2018-04-27T04:15:28.318Z,100914.77
2018-04-27T04:17:56.597Z,100910.05
2018-04-27T04:20:24.878Z,100898.12
2018-04-27T04:22:53.164Z,100900.38
2018-04-27T04:25:21.434Z,100893.21
2018-04-27T04:27:49.706Z,100891.03
2018-04-27T04:30:17.978Z,100889.22
2018-04-27T04:32:46.257Z,100884.32
2018-04-27T04:35:14.517Z,100889.40
2018-04-27T04:37:42.790Z,100890.48
2018-04-27T04:40:11.054Z,100887.17
2018-04-27T04:42:39.325Z,100888.01
2018-04-27T04:45:07.671Z,100880.39
2018-04-27T04:47:35.875Z,100874.50
2018-04-27T04:50:04.140Z,100870.95
2018-04-27T04:52:32.461Z,100871.86
2018-04-27T04:55:00.685Z,100864.63
2018-04-27T04:57:28.946Z,100874.12
2018-04-27T04:59:57.226Z,100871.11
2018-04-27T05:02:25.490Z,100880.44
2018-04-27T05:04:53.781Z,100877.13
2018-04-27T05:07:22.055Z,100872.42
2018-04-27T05:09:50.345Z,100876.28
2018-04-27T05:12:18.612Z,100874.91
2018-04-27T05:14:46.882Z,100862.54
2018-04-27T05:17:15.157Z,100870.74
2018-04-27T05:19:43.429Z,100867.39
2018-04-27T05:22:11.694Z,100870.44
2018-04-27T05:24:39.969Z,100872.31
2018-04-27T05:27:08.249Z,100869.70
2018-04-27T05:29:36.581Z,100863.75
2018-04-27T05:32:04.798Z,100864.55
2018-04-27T05:34:33.057Z,100864.09
2018-04-27T05:37:01.334Z,100862.81
2018-04-27T05:39:29.598Z,100851.28
2018-04-27T05:41:57.874Z,100849.67
2018-04-27T05:44:26.442Z,100849.68
2018-04-27T05:46:54.722Z,100849.15
2018-04-27T05:49:22.989Z,100851.48
2018-04-27T05:51:51.267Z,100846.15
2018-04-27T05:54:19.540Z,100843.52
2018-04-27T05:56:47.821Z,100842.25
2018-04-27T05:59:16.110Z,100835.73
2018-04-27T06:01:44.402Z,100835.42
2018-04-27T06:04:12.673Z,100831.07
2018-04-27T06:06:40.937Z,100824.22
2018-04-27T06:09:09.213Z,100820.36
2018-04-27T06:11:37.485Z,100811.70
2018-04-27T06:14:05.769Z,100811.83
2018-04-27T06:16:34.038Z,100809.70
2018-04-27T06:19:02.330Z,100806.28
2018-04-27T06:21:30.603Z,100810.20
2018-04-27T06:23:58.881Z,100816.66
2018-04-27T06:26:27.148Z,100818.01
2018-04-27T06:28:55.432Z,100822.23
2018-04-27T06:31:23.701Z,100810.98
2018-04-27T06:33:51.986Z,100807.13
2018-04-27T06:36:20.269Z,100806.67
2018-04-27T06:38:48.553Z,100795.87
2018-04-27T06:41:16.829Z,100789.84
2018-04-27T06:43:45.105Z,100790.32
2018-04-27T06:46:13.398Z,100796.37
2018-04-27T06:48:41.665Z,100785.14
2018-04-27T06:51:09.942Z,100776.45
2018-04-27T06:53:38.217Z,100774.70
2018-04-27T06:56:06.537Z,100775.14
2018-04-27T06:58:34.797Z,100778.12
2018-04-27T07:01:03.085Z,100777.66
2018-04-27T07:03:31.358Z,100774.61
2018-04-27T07:05:59.633Z,100772.86
2018-04-27T07:08:27.917Z,100775.80
2018-04-27T07:10:56.201Z,100763.10
2018-04-27T07:13:24.479Z,100762.73
2018-04-27T07:15:52.769Z,100749.45
2018-04-27T07:18:21.034Z,100744.48
2018-04-27T07:20:49.326Z,100749.83
2018-04-27T07:23:17.601Z,100750.44
2018-04-27T07:25:45.886Z,100749.72
2018-04-27T07:28:14.160Z,100744.61
2018-04-27T07:30:42.426Z,100733.81
2018-04-27T07:33:10.706Z,100727.73
2018-04-27T07:35:38.974Z,100721.48
2018-04-27T07:38:07.250Z,100715.88
2018-04-27T07:40:35.522Z,100710.91
2018-04-27T07:43:03.798Z,100714.59
2018-04-27T07:45:32.063Z,100710.54
2018-04-27T07:48:00.346Z,100712.05
2018-04-27T07:50:28.613Z,100710.83
2018-04-27T07:52:56.889Z,100711.73
2018-04-27T07:55:25.231Z,100701.75
2018-04-27T07:57:53.466Z,100706.12
2018-04-27T08:00:21.741Z,100702.88
2018-04-27T08:02:50.061Z,100706.98
2018-04-27T08:05:18.329Z,100702.45
2018-04-27T08:07:46.629Z,100703.97
2018-04-27T08:10:14.905Z,100696.77
2018-04-27T08:12:43.185Z,100698.20
2018-04-27T08:15:11.471Z,100698.21
2018-04-27T08:17:39.767Z,100693.48
2018-04-27T08:20:08.049Z,100691.41
2018-04-27T08:22:37.058Z,100687.76
2018-04-27T08:25:05.337Z,100681.88
2018-04-27T08:27:33.606Z,100682.31
2018-04-27T08:30:01.892Z,100690.63
2018-04-27T08:32:30.154Z,100682.31
2018-04-27T08:34:58.458Z,100678.67
2018-04-27T08:37:26.729Z,100665.16
2018-04-27T08:39:55.007Z,100677.83
2018-04-27T08:42:23.270Z,100666.83
2018-04-27T08:44:51.563Z,100665.15
2018-04-27T08:47:19.830Z,100668.30
2018-04-27T08:49:48.133Z,100660.80
2018-04-27T08:52:16.379Z,100655.48
2018-04-27T08:54:44.665Z,100652.28
2018-04-27T08:57:12.941Z,100647.92
2018-04-27T08:59:41.209Z,100648.38
2018-04-27T09:02:09.537Z,100650.53
2018-04-27T09:04:37.814Z,100646.98
2018-04-27T09:07:06.102Z,100639.97
2018-04-27T09:09:34.362Z,100631.55
2018-04-27T09:12:02.657Z,100632.16
2018-04-27T09:14:30.933Z,100623.54
2018-04-27T09:16:59.210Z,100616.20
2018-04-27T09:19:27.491Z,100623.33
2018-04-27T09:21:55.763Z,100608.18
2018-04-27T09:24:24.046Z,100611.17
2018-04-27T09:26:52.397Z,100612.27
2018-04-27T09:29:20.614Z,100601.06
2018-04-27T09:31:48.886Z,100595.64
2018-04-27T09:34:17.167Z,100597.02
2018-04-27T09:36:45.446Z,100587.71
2018-04-27T09:39:13.713Z,100595.58
2018-04-27T09:41:41.998Z,100588.12
2018-04-27T09:44:10.263Z,100588.81
2018-04-27T09:46:38.553Z,100589.73
2018-04-27T09:49:06.829Z,100578.48
2018-04-27T09:51:35.091Z,100582.84
2018-04-27T09:54:03.365Z,100570.55
2018-04-27T09:56:31.652Z,100559.49
2018-04-27T09:58:59.938Z,100554.97
2018-04-27T10:01:28.210Z,100558.58
2018-04-27T10:03:56.565Z,100557.67
2018-04-27T10:06:24.775Z,100543.22
2018-04-27T10:08:53.077Z,100538.17
2018-04-27T10:11:21.354Z,100544.38
2018-04-27T10:13:49.622Z,100533.30
2018-04-27T10:16:17.905Z,100531.56
2018-04-27T10:18:46.165Z,100516.40
2018-04-27T10:21:14.749Z,100516.38
2018-04-27T10:23:43.015Z,100519.45
2018-04-27T10:26:11.280Z,100514.78
2018-04-27T10:28:39.557Z,100506.54
2018-04-27T10:31:07.849Z,100501.06
2018-04-27T10:33:36.135Z,100497.84
2018-04-27T10:36:04.414Z,100491.09
2018-04-27T10:38:32.708Z,100492.36
2018-04-27T10:41:00.981Z,100482.89
2018-04-27T10:43:29.321Z,100491.28
2018-04-27T10:45:57.598Z,100480.09
2018-04-27T10:48:25.870Z,100482.34
2018-04-27T10:50:54.150Z,100490.64
2018-04-27T10:53:22.421Z,100481.55
2018-04-27T10:55:50.719Z,100479.02
2018-04-27T10:58:19.062Z,100468.84
2018-04-27T11:00:47.350Z,100472.61
2018-04-27T11:03:15.654Z,100463.48
2018-04-27T11:05:43.908Z,100456.16
2018-04-27T11:08:12.181Z,100448.84
2018-04-27T11:10:40.459Z,100435.33
2018-04-27T11:13:08.738Z,100417.11
2018-04-27T11:15:37.015Z,100418.77
2018-04-27T11:18:05.293Z,100414.95
2018-04-27T11:20:33.559Z,100434.17
2018-04-27T11:23:01.848Z,100424.06
2018-04-27T11:25:38.529Z,100422.12
2018-04-27T11:28:07.153Z,100427.56
2018-04-27T11:30:35.424Z,100406.56
2018-04-27T11:33:03.689Z,100412.51
2018-04-27T11:35:31.966Z,100400.96
2018-04-27T11:38:00.238Z,100413.11
2018-04-27T11:40:28.514Z,100406.83
2018-04-27T11:42:56.782Z,100391.40
2018-04-27T11:45:25.067Z,100384.56
2018-04-27T11:47:53.338Z,100377.39
2018-04-27T11:50:21.626Z,100365.03
2018-04-27T11:52:49.894Z,100360.23
2018-04-27T11:55:18.170Z,100348.53
2018-04-27T11:57:46.440Z,100353.08
2018-04-27T12:00:14.725Z,100356.27
2018-04-27T12:02:42.999Z,100346.98
2018-04-27T12:05:11.285Z,100341.94
2018-04-27T12:07:39.553Z,100344.74
2018-04-27T12:10:07.833Z,100334.27
2018-04-27T12:12:36.106Z,100340.49
2018-04-27T12:15:04.394Z,100322.16
2018-04-27T12:17:32.690Z,100315.24
2018-04-27T12:20:00.937Z,100306.73
2018-04-27T12:22:29.334Z,100307.25
2018-04-27T12:24:57.601Z,100300.66
2018-04-27T12:27:25.882Z,100286.16
2018-04-27T12:29:54.154Z,100292.34
2018-04-27T12:32:22.449Z,100287.52
2018-04-27T12:34:50.739Z,100272.97
2018-04-27T12:37:19.038Z,100269.03
2018-04-27T12:39:47.296Z,100246.18
2018-04-27T12:42:15.570Z,100248.06
2018-04-27T12:44:43.848Z,100235.80
2018-04-27T12:47:12.138Z,100235.39
2018-04-27T12:49:40.414Z,100236.52
2018-04-27T12:52:08.754Z,100219.55
2018-04-27T12:54:36.990Z,100222.22
2018-04-27T12:57:05.275Z,100210.09
2018-04-27T12:59:33.554Z,100193.27
2018-04-27T13:02:01.829Z,100202.07
2018-04-27T13:04:30.122Z,100185.80
2018-04-27T13:06:58.402Z,100181.73
2018-04-27T13:09:26.681Z,100171.19
2018-04-27T13:11:54.949Z,100172.78
2018-04-27T13:14:23.270Z,100166.86
2018-04-27T13:16:51.547Z,100170.67
2018-04-27T13:19:19.841Z,100181.05
2018-04-27T13:21:48.110Z,100175.86
2018-04-27T13:24:16.386Z,100183.19
2018-04-27T13:26:44.663Z,100167.27
2018-04-27T13:29:12.953Z,100177.11
2018-04-27T13:31:41.225Z,100171.50
2018-04-27T13:34:09.518Z,100166.98
2018-04-27T13:36:37.792Z,100163.28
2018-04-27T13:39:06.077Z,100171.50
2018-04-27T13:41:34.362Z,100156.55
2018-04-27T13:44:02.626Z,100158.94
2018-04-27T13:46:30.906Z,100167.81
2018-04-27T13:48:59.203Z,100155.27
2018-04-27T13:51:27.501Z,100163.86
2018-04-27T13:53:55.773Z,100150.48
2018-04-27T13:56:24.069Z,100145.72
2018-04-27T13:58:52.344Z,100164.09
2018-04-27T14:01:20.634Z,100158.87
2018-04-27T14:03:48.910Z,100164.98
2018-04-27T14:06:17.203Z,100174.31
2018-04-27T14:08:45.481Z,100164.87
2018-04-27T14:11:13.800Z,100160.52
2018-04-27T14:13:42.038Z,100147.02
2018-04-27T14:16:10.311Z,100157.08
2018-04-27T14:18:38.604Z,100151.68
2018-04-27T14:21:06.877Z,100130.35
2018-04-27T14:23:35.163Z,100133.48
2018-04-27T14:26:03.431Z,100121.05
2018-04-27T14:28:31.713Z,100111.34
2018-04-27T14:30:59.993Z,100102.13
2018-04-27T14:35:55.598Z,100074.71
2018-04-27T14:38:23.873Z,100081.77
2018-04-27T14:40:52.165Z,100078.97
2018-04-27T14:43:20.441Z,100072.06
2018-04-27T14:45:48.728Z,100069.18
2018-04-27T14:48:16.995Z,100063.97
2018-04-27T14:50:45.270Z,100059.55
2018-04-27T14:53:13.554Z,100053.92
2018-04-27T14:55:41.818Z,100056.34
2018-04-27T14:58:10.102Z,100055.41
2018-04-27T15:00:38.469Z,100048.09
2018-04-27T15:03:06.765Z,100035.97
2018-04-27T15:05:35.039Z,100049.74
2018-04-27T15:08:03.318Z,100054.16
2018-04-27T15:10:31.610Z,100058.65
2018-04-27T15:12:59.890Z,100056.20
2018-04-27T15:15:28.173Z,100054.87
2018-04-27T15:17:56.442Z,100056.64
2018-04-27T15:20:24.759Z,100051.50
2018-04-27T15:22:53.039Z,100049.81
2018-04-27T15:25:21.312Z,100047.01
2018-04-27T15:27:49.604Z,100042.70
2018-04-27T15:30:17.948Z,100035.58
2018-04-27T15:32:46.158Z,100027.78
2018-04-27T15:35:14.452Z,100037.65
2018-04-27T15:37:42.734Z,100032.35
2018-04-27T15:40:11.014Z,100023.63
2018-04-27T15:42:39.294Z,100022.76
2018-04-27T15:45:07.565Z,100021.41
2018-04-27T15:47:35.844Z,100019.75
2018-04-27T15:50:04.147Z,100024.80
2018-04-27T15:52:32.410Z,100026.87
2018-04-27T15:55:00.701Z,100015.21
2018-04-27T15:57:29.146Z,100017.59
2018-04-27T15:59:57.385Z,100023.01
2018-04-27T16:02:25.671Z,100028.43
2018-04-27T16:04:53.949Z,100033.14
2018-04-27T16:07:22.245Z,100028.64
2018-04-27T16:09:51.350Z,100015.61
2018-04-27T16:12:19.641Z,100000.73
2018-04-27T16:14:47.928Z,99989.48
2018-04-27T16:17:16.181Z,99997.23
2018-04-27T16:19:44.470Z,99997.38
2018-04-27T16:22:12.743Z,100005.28
2018-04-27T16:24:51.693Z,99999.70
2018-04-27T16:27:19.965Z,99998.94
2018-04-27T16:29:48.262Z,99994.98
2018-04-27T16:32:16.514Z,99998.61
2018-04-27T16:34:44.781Z,100005.23
2018-04-27T16:37:13.090Z,100009.37
2018-04-27T16:39:41.368Z,99997.78
2018-04-27T16:42:09.656Z,99995.98
2018-04-27T16:44:37.924Z,100000.05
2018-04-27T16:47:06.211Z,100000.69
2018-04-27T16:49:34.476Z,99999.31
2018-04-27T16:52:02.738Z,99993.67
2018-04-27T16:54:31.055Z,99987.02
2018-04-27T16:56:59.274Z,99978.23
2018-04-27T16:59:27.542Z,99983.67
2018-04-27T17:01:55.804Z,99979.03
2018-04-27T17:04:24.087Z,99984.41
2018-04-27T17:06:52.350Z,99987.14
2018-04-27T17:09:20.613Z,99990.36
2018-04-27T17:11:48.885Z,99992.80
2018-04-27T17:14:17.150Z,99990.53
2018-04-27T17:16:45.441Z,99994.41
2018-04-27T17:19:13.706Z,100002.16
2018-04-27T17:21:42.038Z,99997.05
2018-04-27T17:24:10.298Z,99992.89
2018-04-27T17:26:38.630Z,99994.28
2018-04-27T17:29:06.847Z,99997.97
2018-04-27T17:31:35.111Z,99994.62
2018-04-27T17:34:03.379Z,99994.71
2018-04-27T17:36:31.637Z,99999.68
2018-04-27T17:38:59.922Z,100006.36
2018-04-27T17:41:28.196Z,100002.72
2018-04-27T17:43:56.469Z,100001.44
2018-04-27T17:46:24.747Z,99997.67
2018-04-27T17:48:53.063Z,100002.58
2018-04-27T17:51:21.325Z,100006.27
2018-04-27T17:53:49.587Z,100008.73
2018-04-27T17:56:17.881Z,100008.03
2018-04-27T17:58:46.157Z,100007.02
2018-04-27T18:01:14.422Z,100012.63
2018-04-27T18:03:42.710Z,100014.00
2018-04-27T18:06:10.978Z,100015.69
2018-04-27T18:08:39.257Z,100017.16
2018-04-27T18:11:07.535Z,100020.97
2018-04-27T18:13:35.817Z,100024.27
2018-04-27T18:16:04.109Z,100026.63
2018-04-27T18:18:32.375Z,100027.76
2018-04-27T18:21:00.656Z,100028.97
2018-04-27T18:23:28.922Z,100030.17
2018-04-27T18:25:57.208Z,100030.16
2018-04-27T18:28:25.483Z,100036.11
2018-04-27T18:30:53.783Z,100040.08
2018-04-27T18:33:22.088Z,100042.59
2018-04-27T18:35:50.321Z,100038.76
2018-04-27T18:38:18.598Z,100049.20
2018-04-27T18:40:46.893Z,100047.27
2018-04-27T18:43:15.174Z,100052.81
2018-04-27T18:45:43.445Z,100053.91
2018-04-27T18:48:11.729Z,100048.64
2018-04-27T18:50:40.002Z,100052.16
2018-04-27T18:53:08.269Z,100047.76
2018-04-27T18:55:36.545Z,100051.55
2018-04-27T18:58:04.818Z,100048.43
2018-04-27T19:00:36.923Z,100050.63
2018-04-27T19:03:06.002Z,100043.11
2018-04-27T19:05:34.245Z,100042.25
2018-04-27T19:08:02.503Z,100043.69
2018-04-27T19:10:41.754Z,100046.37
2018-04-27T19:13:12.675Z,100054.36
2018-04-27T19:15:40.966Z,100053.81
2018-04-27T19:18:09.234Z,100057.93
2018-04-27T19:20:38.245Z,100057.68
2018-04-27T19:23:07.431Z,100060.78
2018-04-27T19:25:49.812Z,100061.06
2018-04-27T19:28:21.469Z,100062.08
2018-04-27T19:30:49.746Z,100060.84
2018-04-27T19:33:18.053Z,100066.05
2018-04-27T19:35:46.320Z,100062.80
2018-04-27T19:38:14.599Z,100065.05
2018-04-27T19:40:42.866Z,100069.03
2018-04-27T19:43:11.147Z,100068.25
2018-04-27T19:45:39.437Z,100068.97
2018-04-27T19:48:07.721Z,100072.69
2018-04-27T19:50:37.924Z,100073.50
2018-04-27T19:53:06.204Z,100082.56
2018-04-27T19:55:34.476Z,100088.91
2018-04-27T19:58:02.765Z,100091.63
2018-04-27T20:00:31.040Z,100091.42
2018-04-27T20:02:59.330Z,100091.14
2018-04-27T20:05:27.597Z,100089.54
2018-04-27T20:07:55.883Z,100093.55
2018-04-27T20:10:25.537Z,100092.00
2018-04-27T20:12:53.882Z,100092.03
2018-04-27T20:15:33.762Z,100093.03
2018-04-27T20:18:02.131Z,100091.89
2018-04-27T20:20:30.395Z,100096.41
2018-04-27T20:23:01.283Z,100098.19
2018-04-27T20:25:29.563Z,100101.16
2018-04-27T20:27:57.850Z,100094.06
2018-04-27T20:30:26.118Z,100100.04
2018-04-27T20:32:54.400Z,100087.39
2018-04-27T20:35:22.682Z,100086.41
2018-04-27T20:38:05.826Z,100087.70
2018-04-27T20:40:34.105Z,100084.27
2018-04-27T20:43:05.972Z,100091.37
2018-04-27T20:45:35.026Z,100097.39
2018-04-27T20:48:03.342Z,100102.55
2018-04-27T20:50:32.525Z,100108.19
2018-04-27T20:53:03.750Z,100111.39
2018-04-27T20:55:32.043Z,100121.05
2018-04-27T20:58:00.318Z,100117.81
2018-04-27T21:00:28.587Z,100121.17
2018-04-27T21:02:56.869Z,100120.29
2018-04-27T21:05:25.228Z,100121.73
2018-04-27T21:07:53.473Z,100123.08
2018-04-27T21:10:21.746Z,100125.87
2018-04-27T21:12:50.949Z,100120.91
2018-04-27T21:15:19.221Z,100117.24
2018-04-27T21:17:49.115Z,100122.41
2018-04-27T21:20:19.997Z,100128.22
2018-04-27T21:22:48.874Z,100127.98
2018-04-27T21:28:16.977Z,100128.27
2018-04-27T21:30:45.250Z,100138.63
2018-04-27T21:33:13.517Z,100134.56
2018-04-27T21:35:52.631Z,100136.06
2018-04-27T21:41:21.549Z,100140.36
2018-04-27T21:43:49.821Z,100135.27
2018-04-27T21:46:20.041Z,100145.10
2018-04-27T21:48:48.322Z,100143.39
2018-04-27T21:51:16.595Z,100147.94
2018-04-27T21:53:44.877Z,100154.63
2018-04-27T21:56:13.167Z,100156.64
2018-04-27T21:58:41.446Z,100163.19
2018-04-27T22:01:09.720Z,100165.06
2018-04-27T22:03:38.025Z,100167.30
2018-04-27T22:06:06.289Z,100168.38
2018-04-27T22:08:40.525Z,100166.80
2018-04-27T22:14:04.620Z,100177.68
2018-04-27T22:16:47.474Z,100173.52
2018-04-27T22:19:17.469Z,100177.24
2018-04-27T22:21:46.557Z,100181.25
2018-04-27T22:24:14.846Z,100186.77
2018-04-27T22:26:44.772Z,100184.52
2018-04-27T22:29:23.851Z,100185.95
2018-04-27T22:31:55.469Z,100188.91
2018-04-27T22:34:25.237Z,100194.23
2018-04-27T22:36:53.509Z,100195.61
2018-04-27T22:39:32.637Z,100195.98
2018-04-27T22:42:07.405Z,100192.93
2018-04-27T22:44:38.557Z,100197.00
2018-04-27T22:47:06.817Z,100199.56
2018-04-27T22:49:35.109Z,100201.45
2018-04-27T22:52:03.377Z,100201.27
2018-04-27T22:57:51.799Z,100205.50
2018-04-27T23:00:20.086Z,100202.63
2018-04-27T23:02:50.148Z,100204.81
2018-04-27T23:05:25.806Z,100204.51
2018-04-27T23:07:55.333Z,100205.88
2018-04-27T23:10:23.606Z,100206.64
2018-04-27T23:13:02.521Z,100209.64
2018-04-27T23:15:47.466Z,100214.67
2018-04-27T23:18:18.353Z,100202.99
2018-04-27T23:20:48.314Z,100208.38
2018-04-27T23:23:17.366Z,100217.25
2018-04-27T23:25:49.164Z,100206.72
2018-04-27T23:28:17.434Z,100210.76
2018-04-27T23:30:47.221Z,100210.41
2018-04-27T23:33:15.505Z,100206.47
2018-04-27T23:35:44.737Z,100213.43
2018-04-27T23:38:13.010Z,100208.13
2018-04-27T23:40:41.290Z,100207.64
2018-04-27T23:43:10.892Z,100216.75
2018-04-27T23:45:39.174Z,100215.16
2018-04-27T23:48:07.442Z,100210.18
2018-04-27T23:50:35.731Z,100219.77
2018-04-27T23:53:03.993Z,100219.17
2018-04-27T23:55:32.265Z,100223.53
2018-04-27T23:58:00.583Z,100223.72
